Time;durP1;ratioP1;P1;durP2;ratioP2;P2;SDS_P1;SDS_P2;PMS_P1;PMS_P2;Temp;Humidity;BMP_temperature;BMP_pressure;BME280_temperature;BME280_humidity;BME280_pressure;Samples;Min_cycle;Max_cycle;Signal;HPM_P1;HPM_P2
2022/08/10 00:02:23;;;;;;;0.98;0.35;;;29.70;49.80;;;;;;10400274;28;20500;-40
2022/08/10 00:07:26;;;;;;;0.38;0.30;;;29.60;49.70;;;;;;10399760;28;20099;-39
2022/08/10 00:12:28;;;;;;;0.47;0.30;;;29.60;49.70;;;;;;10399911;28;20065;-43
2022/08/10 00:17:30;;;;;;;0.28;0.20;;;29.60;49.70;;;;;;10397018;28;21134;-44
2022/08/10 00:22:33;;;;;;;0.57;0.30;;;29.60;49.80;;;;;;10397131;28;20056;-42
2022/08/10 00:27:36;;;;;;;1.90;0.45;;;29.50;49.70;;;;;;10398990;28;20120;-40
2022/08/10 00:32:37;;;;;;;0.40;0.40;;;29.50;49.70;;;;;;10400134;28;20057;-42
2022/08/10 00:37:41;;;;;;;0.25;0.25;;;29.30;49.50;;;;;;10397229;28;20045;-44
2022/08/10 00:42:43;;;;;;;0.47;0.35;;;29.40;49.80;;;;;;10396979;28;20053;-40
2022/08/10 00:47:44;;;;;;;1.67;0.30;;;29.40;49.70;;;;;;10397656;28;20157;-43
2022/08/10 00:52:48;;;;;;;2.80;0.40;;;29.30;50.30;;;;;;10398702;28;20137;-43
2022/08/10 00:57:50;;;;;;;0.65;0.35;;;29.20;49.70;;;;;;10399192;28;20087;-42
2022/08/10 01:02:52;;;;;;;2.30;0.28;;;29.30;49.70;;;;;;10392952;28;20091;-43
2022/08/10 01:08:12;;;;;;;0.68;0.30;;;29.20;49.70;;;;;;10398280;28;20053;-43
2022/08/10 01:13:21;;;;;;;0.47;0.30;;;29.20;49.70;;;;;;10401241;28;20075;-40
2022/08/10 01:18:30;;;;;;;0.17;0.17;;;29.10;49.70;;;;;;10399413;28;20069;-45
2022/08/10 01:24:00;;;;;;;0.40;0.30;;;29.10;49.70;;;;;;10397595;28;20131;-42
2022/08/10 01:29:21;;;;;;;1.23;0.20;;;29.10;49.70;;;;;;10401357;28;20041;-44
2022/08/10 01:34:27;;;;;;;;;;;29.00;49.70;;;;;;10401002;28;20690;-43
2022/08/10 01:39:36;;;;;;;0.47;0.32;;;29.00;49.60;;;;;;10399560;28;19925;-42
2022/08/10 01:44:45;;;;;;;0.30;0.20;;;29.00;49.50;;;;;;10398658;28;20049;-44
2022/08/10 01:49:53;;;;;;;0.40;0.28;;;29.00;49.60;;;;;;10401320;28;20092;-45
2022/08/10 01:54:57;;;;;;;0.65;0.30;;;29.00;49.70;;;;;;10407364;28;20045;-46
2022/08/10 02:00:00;;;;;;;0.73;0.30;;;28.90;49.60;;;;;;10408590;28;20076;-43
2022/08/10 02:05:05;;;;;;;0.15;0.15;;;28.90;49.60;;;;;;10407197;28;20085;-42
2022/08/10 02:10:11;;;;;;;0.45;0.25;;;28.80;49.60;;;;;;10408395;28;20085;-39
2022/08/10 02:15:17;;;;;;;0.88;0.30;;;28.80;49.60;;;;;;10405683;28;20379;-41
2022/08/10 02:20:22;;;;;;;0.60;0.20;;;28.80;49.60;;;;;;10405460;28;20037;-39
2022/08/10 02:25:25;;;;;;;0.32;0.25;;;28.70;49.60;;;;;;10407103;28;20092;-43
2022/08/10 02:30:28;;;;;;;1.60;0.45;;;28.70;49.50;;;;;;10405296;28;20085;-41
2022/08/10 02:35:32;;;;;;;0.40;0.30;;;28.70;49.60;;;;;;10405494;28;20077;-40
2022/08/10 02:40:41;;;;;;;0.85;0.20;;;28.60;49.50;;;;;;10406630;28;20045;-42
2022/08/10 02:45:46;;;;;;;0.80;0.35;;;28.60;49.50;;;;;;10406567;28;20394;-41
2022/08/10 02:50:57;;;;;;;0.47;0.30;;;28.60;49.60;;;;;;10405515;28;20156;-42
2022/08/10 02:56:04;;;;;;;0.63;0.20;;;28.50;49.50;;;;;;10405926;28;20500;-42
2022/08/10 03:01:11;;;;;;;0.20;0.20;;;28.50;49.60;;;;;;10405426;28;20143;-40
2022/08/10 03:06:19;;;;;;;0.20;0.20;;;28.50;49.60;;;;;;10405377;28;20038;-42
2022/08/10 03:11:29;;;;;;;0.85;0.20;;;28.40;49.50;;;;;;10404238;28;20131;-45
2022/08/10 03:16:32;;;;;;;1.17;0.30;;;28.40;49.60;;;;;;10405302;28;20046;-42
2022/08/10 03:21:38;;;;;;;0.17;0.10;;;28.40;49.60;;;;;;10404547;28;20088;-41
2022/08/10 03:26:40;;;;;;;1.00;0.30;;;28.30;49.50;;;;;;10403698;28;20449;-42
2022/08/10 03:31:43;;;;;;;0.28;0.20;;;28.30;49.50;;;;;;10403761;28;20037;-43
2022/08/10 03:36:46;;;;;;;0.40;0.20;;;28.20;49.60;;;;;;10403085;28;20445;-39
2022/08/10 03:41:54;;;;;;;0.75;0.35;;;28.20;49.60;;;;;;10404253;28;20464;-43
2022/08/10 03:46:59;;;;;;;1.35;0.40;;;28.30;49.70;;;;;;10402885;28;20444;-43
2022/08/10 03:52:05;;;;;;;1.60;0.30;;;28.10;49.60;;;;;;10400952;28;20389;-46
2022/08/10 03:57:07;;;;;;;1.00;0.30;;;28.20;49.60;;;;;;10401115;28;20041;-45
2022/08/10 04:02:09;;;;;;;0.30;0.30;;;28.10;49.60;;;;;;10401270;28;20057;-42
2022/08/10 04:07:13;;;;;;;0.40;0.40;;;28.20;49.70;;;;;;10397709;28;21476;-43
2022/08/10 04:12:15;;;;;;;0.40;0.32;;;28.10;49.70;;;;;;10399831;28;20085;-40
2022/08/10 04:17:17;;;;;;;1.90;0.40;;;28.00;50.20;;;;;;10401820;28;20099;-42
2022/08/10 04:22:23;;;;;;;0.95;0.30;;;28.00;49.70;;;;;;10399661;28;20095;-39
2022/08/10 04:27:26;;;;;;;0.65;0.30;;;28.00;49.70;;;;;;10397696;28;20037;-39
2022/08/10 04:32:30;;;;;;;0.30;0.30;;;27.90;49.80;;;;;;10395735;28;20053;-43
2022/08/10 04:37:36;;;;;;;0.50;0.40;;;27.80;49.80;;;;;;10393840;28;20033;-44
2022/08/10 04:42:38;;;;;;;0.82;0.30;;;27.80;49.80;;;;;;10391315;28;20067;-42
2022/08/10 04:47:40;;;;;;;0.68;0.40;;;27.80;49.70;;;;;;10393954;28;20095;-43
2022/08/10 04:52:43;;;;;;;1.20;0.40;;;27.80;49.60;;;;;;10392645;28;20524;-43
2022/08/10 04:57:45;;;;;;;1.08;0.50;;;27.80;49.50;;;;;;10393553;28;20160;-42
2022/08/10 05:02:47;;;;;;;0.55;0.45;;;27.80;49.40;;;;;;10394072;28;20096;-44
2022/08/10 05:07:50;;;;;;;0.57;0.50;;;27.80;49.30;;;;;;10393755;28;20049;-44
2022/08/10 05:12:52;;;;;;;0.77;0.55;;;27.70;49.30;;;;;;10395782;28;20045;-42
2022/08/10 05:17:54;;;;;;;1.85;0.85;;;27.70;49.20;;;;;;10395601;28;20174;-44
2022/08/10 05:22:57;;;;;;;0.40;0.40;;;27.70;49.30;;;;;;10396339;28;20049;-42
2022/08/10 05:27:59;;;;;;;0.85;0.50;;;27.60;49.10;;;;;;10393673;28;20449;-41
2022/08/10 05:33:01;;;;;;;6.18;0.60;;;27.70;49.20;;;;;;10397457;28;20056;-39
2022/08/10 05:38:05;;;;;;;0.88;0.57;;;27.70;49.10;;;;;;10395284;28;20548;-43
2022/08/10 05:43:07;;;;;;;1.63;0.60;;;27.80;49.10;;;;;;10393446;28;20509;-43
2022/08/10 05:48:09;;;;;;;2.15;0.50;;;27.70;49.00;;;;;;10396765;28;20107;-42
2022/08/10 05:53:13;;;;;;;1.30;0.73;;;27.80;49.10;;;;;;10395482;28;20505;-44
2022/08/10 05:58:15;;;;;;;1.55;0.40;;;27.80;49.10;;;;;;10396086;28;20126;-43
2022/08/10 06:03:18;;;;;;;1.02;0.60;;;27.70;49.00;;;;;;10392919;28;20041;-41
2022/08/10 06:08:24;;;;;;;0.85;0.57;;;27.80;49.10;;;;;;10388090;28;20095;-43
2022/08/10 06:18:48;;;;;;;1.88;0.50;;;27.80;49.10;;;;;;10393964;28;20976;-43
2022/08/10 06:23:52;;;;;;;2.00;0.65;;;27.80;49.10;;;;;;10396777;28;20544;-46
2022/08/10 06:28:57;;;;;;;1.15;0.50;;;27.90;49.00;;;;;;10394989;28;20141;-42
2022/08/10 06:34:01;;;;;;;0.68;0.55;;;27.90;49.10;;;;;;10392106;28;20136;-44
2022/08/10 06:39:04;;;;;;;5.20;0.60;;;27.90;49.10;;;;;;10397900;28;20111;-40
2022/08/10 06:44:11;;;;;;;2.10;0.60;;;28.00;49.10;;;;;;10400807;28;20042;-43
2022/08/10 06:49:14;;;;;;;2.60;1.00;;;28.00;49.20;;;;;;10401322;28;20470;-43
2022/08/10 06:54:22;;;;;;;1.10;0.50;;;28.10;49.00;;;;;;10401007;28;20065;-43
2022/08/10 06:59:30;;;;;;;1.08;0.40;;;28.20;49.00;;;;;;10401339;28;20119;-43
2022/08/10 07:04:37;;;;;;;2.53;0.65;;;28.20;48.80;;;;;;10400785;28;20123;-40
2022/08/10 07:09:41;;;;;;;0.65;0.40;;;28.30;48.80;;;;;;10400741;28;20080;-46
2022/08/10 07:14:45;;;;;;;0.70;0.70;;;28.30;48.60;;;;;;10400343;28;20053;-43
2022/08/10 07:19:50;;;;;;;0.40;0.40;;;28.30;48.80;;;;;;10398536;28;20136;-44
2022/08/10 07:24:55;;;;;;;0.80;0.80;;;28.30;48.80;;;;;;10401363;28;20405;-42
2022/08/10 07:30:00;;;;;;;0.60;0.60;;;28.20;49.00;;;;;;10399599;28;20057;-42
2022/08/10 07:35:03;;;;;;;0.77;0.77;;;28.20;49.00;;;;;;10399933;28;20050;-44
2022/08/10 07:40:09;;;;;;;0.60;0.40;;;28.20;48.90;;;;;;10399945;28;20480;-44
2022/08/10 07:45:12;;;;;;;0.90;0.50;;;28.30;48.70;;;;;;10398186;28;20116;-42
2022/08/10 07:50:17;;;;;;;1.83;0.70;;;28.30;48.90;;;;;;10397678;28;21037;-44
2022/08/10 07:55:21;;;;;;;2.85;0.60;;;28.30;48.70;;;;;;10398240;28;20159;-42
2022/08/10 08:00:25;;;;;;;0.55;0.47;;;28.40;48.60;;;;;;10400095;28;20135;-38
2022/08/10 08:05:32;;;;;;;2.03;0.65;;;28.40;48.60;;;;;;10398310;28;20484;-40
2022/08/10 08:10:37;;;;;;;1.50;0.47;;;28.40;48.70;;;;;;10394809;28;20084;-42
2022/08/10 08:15:40;;;;;;;1.48;0.55;;;28.50;48.70;;;;;;10398647;28;20081;-44
2022/08/10 08:20:44;;;;;;;0.80;0.50;;;28.40;48.70;;;;;;10397079;28;20140;-37
2022/08/10 08:25:48;;;;;;;1.17;0.63;;;28.40;48.70;;;;;;10398728;28;20096;-42
2022/08/10 08:30:51;;;;;;;2.67;0.57;;;28.40;48.70;;;;;;10399495;28;20470;-45
2022/08/10 08:35:54;;;;;;;1.15;0.60;;;28.50;48.70;;;;;;10400489;28;20068;-45
2022/08/10 08:41:03;;;;;;;0.63;0.52;;;28.50;48.70;;;;;;10399193;28;20561;-42
2022/08/10 08:46:50;;;;;;;0.65;0.47;;;28.50;48.70;;;;;;10411073;28;20045;-42
2022/08/10 08:52:04;;;;;;;3.55;0.60;;;28.50;48.60;;;;;;10295120;28;20475;-45
2022/08/10 08:57:19;;;;;;;3.78;0.68;;;28.50;48.70;;;;;;10400104;28;20789;-40
2022/08/10 09:02:34;;;;;;;0.73;0.55;;;28.50;48.60;;;;;;10394620;28;20077;-44
2022/08/10 09:08:02;;;;;;;1.02;0.63;;;28.50;48.50;;;;;;10397200;28;20065;-41
2022/08/10 09:13:12;;;;;;;1.80;0.57;;;28.60;48.50;;;;;;10397706;28;20045;-41
2022/08/10 09:18:23;;;;;;;0.90;0.53;;;28.60;48.50;;;;;;10396842;28;20763;-43
2022/08/10 09:23:35;;;;;;;1.10;0.63;;;28.60;48.50;;;;;;10395788;28;20517;-39
2022/08/10 09:28:42;;;;;;;3.78;0.60;;;28.60;48.40;;;;;;10398682;28;20045;-43
2022/08/10 09:33:50;;;;;;;1.55;0.52;;;28.70;48.40;;;;;;10397151;28;20103;-38
2022/08/10 09:38:58;;;;;;;1.02;0.73;;;28.70;48.30;;;;;;10396622;28;20494;-43
2022/08/10 09:44:11;;;;;;;0.90;0.50;;;28.80;48.20;;;;;;10395528;28;20073;-44
2022/08/10 09:49:21;;;;;;;1.73;0.88;;;28.90;48.00;;;;;;10397347;28;20115;-41
2022/08/10 09:54:38;;;;;;;2.28;0.70;;;29.00;47.90;;;;;;10395105;28;20091;-44
2022/08/10 09:59:52;;;;;;;3.70;0.70;;;29.00;48.00;;;;;;10395622;28;20053;-45
2022/08/10 10:05:09;;;;;;;2.15;0.85;;;28.90;47.90;;;;;;10390079;28;20045;-43
2022/08/10 10:10:15;;;;;;;2.72;0.95;;;29.00;47.90;;;;;;10393534;28;20045;-46
2022/08/10 10:15:29;;;;;;;0.52;0.30;;;29.10;47.70;;;;;;10403815;28;20077;-42
2022/08/10 10:20:39;;;;;;;1.55;0.73;;;29.20;47.50;;;;;;10404973;28;20083;-40
2022/08/10 10:25:47;;;;;;;0.82;0.60;;;29.20;47.40;;;;;;10405586;28;20129;-42
2022/08/10 10:31:01;;;;;;;1.27;0.80;;;29.40;47.30;;;;;;10406380;28;20065;-44
2022/08/10 10:36:04;;;;;;;2.10;0.85;;;29.40;47.20;;;;;;10404114;28;20048;-43
2022/08/10 10:41:14;;;;;;;3.75;0.98;;;29.50;47.10;;;;;;10404150;28;20126;-40
2022/08/10 10:46:34;;;;;;;2.35;0.85;;;29.60;46.40;;;;;;10402803;28;20136;-38
2022/08/10 10:51:44;;;;;;;3.87;1.63;;;29.80;46.60;;;;;;10404164;28;20516;-42
2022/08/10 10:56:55;;;;;;;1.40;0.52;;;29.80;46.60;;;;;;10403123;28;20128;-40
2022/08/10 11:02:16;;;;;;;4.38;0.75;;;29.80;46.80;;;;;;10402487;28;20126;-40
2022/08/10 11:07:24;;;;;;;1.27;0.50;;;29.80;46.60;;;;;;10404086;28;20119;-45
2022/08/10 11:12:39;;;;;;;1.95;0.90;;;29.90;46.50;;;;;;10403792;28;20134;-43
2022/08/10 11:17:46;;;;;;;5.03;1.00;;;30.00;45.90;;;;;;10404088;28;20639;-45
2022/08/10 11:22:59;;;;;;;1.48;0.50;;;30.20;46.20;;;;;;10402188;28;20068;-43
2022/08/10 11:28:09;;;;;;;4.15;0.98;;;30.10;46.40;;;;;;10403262;28;20865;-44
2022/08/10 11:33:25;;;;;;;1.83;1.03;;;30.20;45.80;;;;;;10403400;28;20069;-41
2022/08/10 11:38:33;;;;;;;3.80;0.85;;;30.20;46.20;;;;;;10400781;28;20041;-40
2022/08/10 11:43:42;;;;;;;3.80;1.00;;;30.30;46.40;;;;;;10400367;28;20088;-37
2022/08/10 11:48:49;;;;;;;2.60;0.73;;;30.30;46.20;;;;;;10398046;28;20558;-40
2022/08/10 11:53:59;;;;;;;2.60;1.15;;;30.40;45.90;;;;;;10402649;28;20482;-44
2022/08/10 12:04:23;;;;;;;2.58;1.13;;;30.40;45.80;;;;;;10399214;28;20363;-39
2022/08/10 12:09:26;;;;;;;2.53;0.80;;;30.50;45.80;;;;;;10397417;28;20436;-35
2022/08/10 12:14:33;;;;;;;2.40;0.88;;;30.40;47.20;;;;;;10400048;28;20061;-37
2022/08/10 12:19:41;;;;;;;2.92;0.80;;;30.60;46.70;;;;;;10399269;28;20053;-37
2022/08/10 12:24:49;;;;;;;2.33;0.80;;;30.60;46.50;;;;;;10401719;28;20055;-36
2022/08/10 12:29:59;;;;;;;4.07;1.05;;;30.60;46.80;;;;;;10401127;28;20471;-35
2022/08/10 12:35:12;;;;;;;4.43;0.90;;;30.70;46.30;;;;;;10401547;28;20441;-35
2022/08/10 12:40:17;;;;;;;1.45;0.65;;;30.70;46.30;;;;;;10394316;28;20544;-35
2022/08/10 12:45:32;;;;;;;1.23;0.75;;;30.80;46.70;;;;;;10393154;28;20092;-34
2022/08/10 12:50:41;;;;;;;4.70;1.00;;;30.70;46.80;;;;;;10398547;28;20088;-35
2022/08/10 12:55:45;;;;;;;2.75;1.05;;;30.70;46.80;;;;;;10399662;28;20496;-35
2022/08/10 13:00:48;;;;;;;2.45;1.50;;;30.80;47.10;;;;;;10401315;28;20099;-35
2022/08/10 13:05:53;;;;;;;3.08;0.85;;;30.80;47.10;;;;;;10397857;28;20630;-35
2022/08/10 13:11:00;;;;;;;2.10;0.95;;;30.90;47.30;;;;;;10397536;28;20167;-36
2022/08/10 13:16:04;;;;;;;2.75;1.05;;;30.90;47.20;;;;;;10397444;28;20049;-37
2022/08/10 13:21:10;;;;;;;3.05;0.95;;;30.90;47.20;;;;;;10397306;28;20133;-36
2022/08/10 13:26:16;;;;;;;4.38;1.00;;;31.00;47.20;;;;;;10391062;28;20099;-35
2022/08/10 13:31:22;;;;;;;9.95;0.90;;;31.00;47.30;;;;;;10399249;28;20103;-35
2022/08/10 13:36:30;;;;;;;2.25;0.95;;;31.10;47.20;;;;;;10396602;28;20048;-36
2022/08/10 13:41:38;;;;;;;5.47;1.13;;;31.10;47.30;;;;;;10397392;28;20069;-34
2022/08/10 13:46:47;;;;;;;2.95;0.85;;;31.20;47.50;;;;;;10399159;28;20125;-35
2022/08/10 13:51:52;;;;;;;4.03;0.90;;;31.20;47.60;;;;;;10407170;28;20136;-36
2022/08/10 13:56:54;;;;;;;2.05;1.20;;;31.30;47.50;;;;;;10405702;28;20176;-34
2022/08/10 14:02:00;;;;;;;3.75;0.90;;;31.40;48.00;;;;;;10406217;28;20033;-35
2022/08/10 14:07:04;;;;;;;2.80;0.90;;;31.50;48.20;;;;;;10406083;28;20069;-35
2022/08/10 14:12:08;;;;;;;7.05;1.45;;;31.50;48.20;;;;;;10408159;28;20478;-34
2022/08/10 14:17:12;;;;;;;3.03;1.00;;;31.60;48.40;;;;;;10406916;28;20039;-36
2022/08/10 14:22:19;;;;;;;4.78;0.90;;;31.90;48.70;;;;;;10407704;28;20716;-35
2022/08/10 14:27:22;;;;;;;4.13;1.10;;;32.20;51.90;;;;;;10407793;28;20046;-33
2022/08/10 14:32:27;;;;;;;2.53;0.85;;;32.30;50.80;;;;;;10407339;28;20140;-35
2022/08/10 14:37:34;;;;;;;3.05;1.10;;;32.60;51.60;;;;;;10404212;28;20041;-35
2022/08/10 14:42:41;;;;;;;2.97;0.82;;;32.60;52.10;;;;;;10400309;28;20429;-35
2022/08/10 14:47:45;;;;;;;4.38;0.90;;;32.70;53.50;;;;;;10404752;28;20140;-34
2022/08/10 14:52:50;;;;;;;6.50;1.20;;;32.80;54.50;;;;;;10403708;28;20150;-34
2022/08/10 14:57:52;;;;;;;2.65;1.05;;;33.00;55.20;;;;;;10397331;28;20128;-36
2022/08/10 15:02:55;;;;;;;4.50;0.85;;;32.90;55.20;;;;;;10401039;28;20444;-35
2022/08/10 15:07:59;;;;;;;2.88;0.82;;;33.10;55.60;;;;;;10397477;28;20048;-34
2022/08/10 15:13:06;;;;;;;5.13;0.80;;;33.10;55.60;;;;;;10401724;28;20077;-34
2022/08/10 15:18:11;;;;;;;2.15;0.80;;;33.00;55.50;;;;;;10400347;28;20123;-35
2022/08/10 15:23:17;;;;;;;5.40;1.30;;;32.90;56.00;;;;;;10387390;28;20056;-36
2022/08/10 15:28:20;;;;;;;6.22;1.00;;;33.00;57.60;;;;;;10398487;28;20509;-36
2022/08/10 15:38:47;;;;;;;4.35;0.88;;;33.10;56.40;;;;;;10398687;28;20042;-37
2022/08/10 15:43:54;;;;;;;4.15;0.90;;;33.20;56.90;;;;;;10400514;28;20041;-37
2022/08/10 15:49:01;;;;;;;1.60;0.77;;;33.30;56.80;;;;;;10399706;28;20136;-36
2022/08/10 15:54:08;;;;;;;3.30;1.00;;;33.30;57.00;;;;;;10401526;28;20088;-36
2022/08/10 15:59:14;;;;;;;1.58;0.85;;;33.30;57.60;;;;;;10400200;28;20091;-38
2022/08/10 16:04:19;;;;;;;4.38;1.50;;;33.40;57.00;;;;;;10401929;28;20167;-35
2022/08/10 16:09:27;;;;;;;3.80;1.35;;;33.40;57.50;;;;;;10400205;28;20156;-34
2022/08/10 16:14:34;;;;;;;2.00;0.73;;;33.50;57.20;;;;;;10398168;28;20041;-37
2022/08/10 16:19:38;;;;;;;3.80;1.30;;;33.60;57.00;;;;;;10395988;28;20046;-36
2022/08/10 16:24:46;;;;;;;2.95;1.00;;;33.70;59.30;;;;;;10393645;28;20452;-36
2022/08/10 16:29:48;;;;;;;7.25;1.20;;;33.80;59.30;;;;;;10394494;28;20077;-37
2022/08/10 16:34:52;;;;;;;1.20;0.63;;;33.80;57.50;;;;;;10397252;28;20153;-35
2022/08/10 16:39:58;;;;;;;1.20;0.60;;;33.80;58.30;;;;;;10395495;28;20075;-36
2022/08/10 16:45:04;;;;;;;2.72;1.02;;;33.90;57.80;;;;;;10396681;28;20504;-36
2022/08/10 16:50:09;;;;;;;2.60;0.90;;;33.90;58.70;;;;;;10393642;28;20041;-39
2022/08/10 16:55:17;;;;;;;10.20;0.82;;;34.00;58.20;;;;;;10396665;28;20091;-36
2022/08/10 17:00:21;;;;;;;2.88;1.15;;;34.10;58.20;;;;;;10395689;28;20049;-36
2022/08/10 17:05:25;;;;;;;2.70;0.65;;;34.20;60.10;;;;;;10394477;28;20478;-36
2022/08/10 17:10:31;;;;;;;0.52;0.50;;;34.20;57.70;;;;;;10396369;28;20085;-34
2022/08/10 17:15:33;;;;;;;1.70;0.80;;;34.10;58.00;;;;;;10396341;28;20149;-36
2022/08/10 17:20:39;;;;;;;2.42;0.50;;;34.10;57.50;;;;;;10397704;28;20136;-35
2022/08/10 17:25:44;;;;;;;0.75;0.47;;;34.00;57.70;;;;;;10397092;28;20140;-36
2022/08/10 17:30:50;;;;;;;1.98;0.60;;;34.10;57.40;;;;;;10395633;28;20148;-36
2022/08/10 17:35:53;;;;;;;4.93;1.35;;;34.10;57.30;;;;;;10393126;28;20073;-35
2022/08/10 17:41:03;;;;;;;1.35;0.70;;;33.90;53.00;;;;;;10395618;28;20107;-36
2022/08/10 17:46:07;;;;;;;1.95;0.77;;;33.20;52.60;;;;;;10385035;28;20441;-35
2022/08/10 17:51:11;;;;;;;1.83;0.55;;;33.70;54.50;;;;;;10384738;28;20524;-35
2022/08/10 17:56:16;;;;;;;1.13;0.50;;;33.90;54.80;;;;;;10385193;28;20482;-35
2022/08/10 18:01:20;;;;;;;0.93;0.77;;;33.90;54.90;;;;;;10373048;28;20399;-36
2022/08/10 18:06:22;;;;;;;1.30;0.60;;;34.00;55.40;;;;;;10374595;28;20541;-36
2022/08/10 18:11:28;;;;;;;1.35;0.70;;;34.00;55.60;;;;;;10384329;28;20043;-37
2022/08/10 18:16:33;;;;;;;0.90;0.77;;;34.00;55.40;;;;;;10385426;28;20146;-37
2022/08/10 18:21:38;;;;;;;1.27;0.75;;;34.00;55.60;;;;;;10376843;28;20180;-36
2022/08/10 18:26:44;;;;;;;0.90;0.50;;;34.00;55.80;;;;;;10378375;28;20129;-36
2022/08/10 18:31:48;;;;;;;1.15;0.75;;;33.90;54.90;;;;;;10381728;28;20042;-36
2022/08/10 18:36:51;;;;;;;0.82;0.50;;;33.90;55.10;;;;;;10283039;28;20046;-36
2022/08/10 18:41:59;;;;;;;1.10;0.70;;;33.90;54.60;;;;;;10382598;28;20127;-37
2022/08/10 18:47:06;;;;;;;1.63;0.82;;;33.90;54.70;;;;;;10375715;28;20126;-36
2022/08/10 18:52:10;;;;;;;1.15;0.60;;;33.90;54.30;;;;;;10385252;28;20049;-37
2022/08/10 18:57:30;;;;;;;1.20;0.70;;;33.80;54.00;;;;;;10388574;28;20049;-35
2022/08/10 19:02:45;;;;;;;1.88;0.82;;;33.80;53.80;;;;;;10400224;28;20049;-33
2022/08/10 19:08:16;;;;;;;1.45;0.82;;;33.80;53.50;;;;;;10387999;28;20659;-37
2022/08/10 19:13:25;;;;;;;1.23;0.60;;;33.70;53.30;;;;;;10378444;28;20516;-35
2022/08/10 19:18:32;;;;;;;1.98;1.00;;;33.60;52.90;;;;;;10399598;28;20118;-35
2022/08/10 19:23:43;;;;;;;1.55;0.65;;;33.60;52.80;;;;;;10384266;28;20103;-33
2022/08/10 19:28:58;;;;;;;2.00;0.93;;;33.60;52.60;;;;;;10374428;28;20397;-35
2022/08/10 19:34:12;;;;;;;1.00;0.60;;;33.60;52.50;;;;;;10398546;28;20114;-36
2022/08/10 19:39:25;;;;;;;1.17;0.52;;;33.50;52.30;;;;;;10394631;28;20033;-37
2022/08/10 19:44:40;;;;;;;1.52;0.80;;;33.50;52.10;;;;;;10399293;28;20045;-37
2022/08/10 19:49:50;;;;;;;1.90;0.90;;;33.50;52.20;;;;;;10396504;28;20045;-38
2022/08/10 19:55:00;;;;;;;1.65;0.60;;;33.50;52.20;;;;;;10397599;28;20133;-36
2022/08/10 20:00:08;;;;;;;1.35;0.80;;;33.40;52.20;;;;;;10399369;28;20045;-37
2022/08/10 20:05:15;;;;;;;1.85;1.05;;;33.40;52.30;;;;;;10398743;28;20141;-38
2022/08/10 20:10:23;;;;;;;2.17;0.80;;;33.40;52.20;;;;;;10397754;28;20061;-36
2022/08/10 20:15:34;;;;;;;2.17;0.88;;;33.40;52.00;;;;;;10393342;28;20484;-36
2022/08/10 20:20:37;;;;;;;2.63;0.80;;;33.30;51.50;;;;;;10392657;28;20096;-35
2022/08/10 20:25:42;;;;;;;1.30;1.00;;;33.20;51.40;;;;;;10395981;28;20541;-38
2022/08/10 20:30:50;;;;;;;0.88;0.80;;;33.20;51.40;;;;;;10398448;28;20132;-37
2022/08/10 20:35:58;;;;;;;2.38;0.80;;;33.20;51.50;;;;;;10400154;28;20148;-37
2022/08/10 20:41:17;;;;;;;1.13;0.80;;;33.10;51.30;;;;;;10400185;28;20061;-39
2022/08/10 20:46:29;;;;;;;2.25;1.33;;;33.10;51.10;;;;;;10399125;28;20516;-35
2022/08/10 20:51:39;;;;;;;0.90;0.75;;;33.00;51.10;;;;;;10399650;28;20037;-36
2022/08/10 20:56:58;;;;;;;1.63;0.65;;;33.00;51.00;;;;;;10399411;28;20135;-36
2022/08/10 21:02:18;;;;;;;4.35;0.90;;;33.00;51.50;;;;;;10399470;28;20132;-36
2022/08/10 21:07:35;;;;;;;1.27;1.00;;;32.90;50.90;;;;;;10400614;28;20450;-36
2022/08/10 21:13:05;;;;;;;2.38;1.02;;;32.90;50.80;;;;;;10395600;28;20045;-36
2022/08/10 21:18:24;;;;;;;3.00;1.67;;;32.80;50.70;;;;;;10398993;28;20037;-35
2022/08/10 21:23:29;;;;;;;0.93;0.77;;;32.80;50.70;;;;;;10398984;28;20053;-35
2022/08/10 23:00:17;;;;;;;1.88;0.73;;;32.10;50.20;;;;;;10400770;28;20033;-36
2022/08/10 23:05:29;;;;;;;1.15;0.88;;;32.00;50.20;;;;;;10402726;28;20068;-35
2022/08/10 23:10:39;;;;;;;1.52;0.85;;;31.90;50.20;;;;;;10403542;28;20163;-36
2022/08/10 23:21:13;;;;;;;1.00;0.80;;;31.80;50.30;;;;;;10401924;28;20458;-35
2022/08/10 23:26:26;;;;;;;0.75;0.63;;;31.70;50.20;;;;;;10401697;28;20449;-36
2022/08/10 23:31:29;;;;;;;0.73;0.60;;;31.70;50.40;;;;;;10401512;28;20148;-35
2022/08/10 23:36:34;;;;;;;2.05;0.82;;;31.70;50.40;;;;;;10402627;28;20044;-35
2022/08/10 23:41:39;;;;;;;0.90;0.70;;;31.70;50.50;;;;;;10402241;28;20057;-35
2022/08/10 23:46:42;;;;;;;1.00;0.90;;;31.60;50.40;;;;;;10403214;28;20045;-36
2022/08/10 23:51:47;;;;;;;0.68;0.68;;;31.60;50.40;;;;;;10401440;28;20111;-37
2022/08/10 23:56:53;;;;;;;0.90;0.80;;;31.50;50.50;;;;;;10401672;28;20430;-36
